sensor_id;sensor_type;location;lat;lon;timestamp;pressure;altitude;pressure_sealevel;temperature;humidity
81379;BME280;70830;42.290;-71.354;2023-07-30T00:02:21;99823.56;;;23.04;84.19
81379;BME280;70830;42.290;-71.354;2023-07-30T00:04:47;99837.84;;;23.04;84.63
81379;BME280;70830;42.290;-71.354;2023-07-30T00:07:14;99855.66;;;23.05;84.97
81379;BME280;70830;42.290;-71.354;2023-07-30T00:09:40;99862.06;;;23.04;84.86
81379;BME280;70830;42.290;-71.354;2023-07-30T00:12:07;99879.69;;;23.07;84.53
81379;BME280;70830;42.290;-71.354;2023-07-30T00:14:35;99894.31;;;23.04;84.96
81379;BME280;70830;42.290;-71.354;2023-07-30T00:17:01;99891.28;;;23.07;85.55
81379;BME280;70830;42.290;-71.354;2023-07-30T00:19:27;99895.50;;;23.10;85.68
81379;BME280;70830;42.290;-71.354;2023-07-30T00:21:53;99892.66;;;23.11;85.40
81379;BME280;70830;42.290;-71.354;2023-07-30T00:24:19;99895.19;;;23.13;84.58
81379;BME280;70830;42.290;-71.354;2023-07-30T00:26:45;99890.63;;;23.13;84.60
81379;BME280;70830;42.290;-71.354;2023-07-30T00:29:11;99898.22;;;23.18;84.53
81379;BME280;70830;42.290;-71.354;2023-07-30T00:31:37;99901.94;;;23.17;83.52
81379;BME280;70830;42.290;-71.354;2023-07-30T00:34:02;99915.56;;;23.15;83.63
81379;BME280;70830;42.290;-71.354;2023-07-30T00:36:28;99920.38;;;23.12;83.42
81379;BME280;70830;42.290;-71.354;2023-07-30T00:38:54;99915.31;;;23.09;83.34
81379;BME280;70830;42.290;-71.354;2023-07-30T00:41:20;99915.00;;;23.04;82.75
81379;BME280;70830;42.290;-71.354;2023-07-30T00:43:46;99920.16;;;22.97;82.65
81379;BME280;70830;42.290;-71.354;2023-07-30T00:46:13;99926.88;;;22.93;82.83
81379;BME280;70830;42.290;-71.354;2023-07-30T00:48:39;99924.97;;;22.86;82.88
81379;BME280;70830;42.290;-71.354;2023-07-30T00:51:06;99936.38;;;22.80;83.07
81379;BME280;70830;42.290;-71.354;2023-07-30T00:53:33;99943.88;;;22.76;83.35
81379;BME280;70830;42.290;-71.354;2023-07-30T00:56:00;99949.59;;;22.73;82.98
81379;BME280;70830;42.290;-71.354;2023-07-30T00:58:26;99970.38;;;22.71;83.51
81379;BME280;70830;42.290;-71.354;2023-07-30T01:00:53;99973.03;;;22.63;82.19
81379;BME280;70830;42.290;-71.354;2023-07-30T01:03:20;99973.03;;;22.63;81.59
81379;BME280;70830;42.290;-71.354;2023-07-30T01:05:46;99981.00;;;22.55;81.42
81379;BME280;70830;42.290;-71.354;2023-07-30T01:08:12;99987.63;;;22.43;82.20
81379;BME280;70830;42.290;-71.354;2023-07-30T01:10:38;99987.16;;;22.30;81.80
81379;BME280;70830;42.290;-71.354;2023-07-30T01:13:07;99991.41;;;22.15;82.42
81379;BME280;70830;42.290;-71.354;2023-07-30T01:15:33;99999.44;;;21.97;82.33
81379;BME280;70830;42.290;-71.354;2023-07-30T01:17:59;100001.75;;;21.82;81.70
81379;BME280;70830;42.290;-71.354;2023-07-30T01:20:30;100004.84;;;21.60;81.40
81379;BME280;70830;42.290;-71.354;2023-07-30T01:22:59;100014.41;;;21.45;81.89
81379;BME280;70830;42.290;-71.354;2023-07-30T01:25:29;100013.19;;;21.30;82.54
81379;BME280;70830;42.290;-71.354;2023-07-30T01:27:58;100009.69;;;21.20;82.11
81379;BME280;70830;42.290;-71.354;2023-07-30T01:30:28;100014.78;;;21.13;81.68
81379;BME280;70830;42.290;-71.354;2023-07-30T01:32:55;100002.13;;;21.06;82.68
81379;BME280;70830;42.290;-71.354;2023-07-30T01:35:26;99996.31;;;21.01;83.02
81379;BME280;70830;42.290;-71.354;2023-07-30T01:37:53;99973.78;;;20.94;82.79
81379;BME280;70830;42.290;-71.354;2023-07-30T01:40:20;99973.22;;;20.90;82.49
81379;BME280;70830;42.290;-71.354;2023-07-30T01:42:46;99968.31;;;20.86;82.13
81379;BME280;70830;42.290;-71.354;2023-07-30T01:45:12;99978.34;;;20.84;82.35
81379;BME280;70830;42.290;-71.354;2023-07-30T01:47:38;99969.72;;;20.80;83.05
81379;BME280;70830;42.290;-71.354;2023-07-30T01:50:04;99966.34;;;20.78;82.74
81379;BME280;70830;42.290;-71.354;2023-07-30T01:52:30;99973.84;;;20.75;83.32
81379;BME280;70830;42.290;-71.354;2023-07-30T01:54:56;99992.88;;;20.72;83.06
81379;BME280;70830;42.290;-71.354;2023-07-30T01:57:24;99968.34;;;20.67;83.71
81379;BME280;70830;42.290;-71.354;2023-07-30T01:59:50;99943.25;;;20.68;83.75
81379;BME280;70830;42.290;-71.354;2023-07-30T02:02:16;99944.22;;;20.67;82.31
81379;BME280;70830;42.290;-71.354;2023-07-30T02:04:42;99939.19;;;20.64;82.42
81379;BME280;70830;42.290;-71.354;2023-07-30T02:07:08;99947.63;;;20.69;82.84
81379;BME280;70830;42.290;-71.354;2023-07-30T02:09:34;99945.38;;;20.64;82.00
81379;BME280;70830;42.290;-71.354;2023-07-30T02:12:00;99957.50;;;20.59;81.59
81379;BME280;70830;42.290;-71.354;2023-07-30T02:14:28;99964.59;;;20.40;81.49
81379;BME280;70830;42.290;-71.354;2023-07-30T02:16:54;99965.59;;;20.30;80.50
81379;BME280;70830;42.290;-71.354;2023-07-30T02:19:20;99964.59;;;20.21;82.00
81379;BME280;70830;42.290;-71.354;2023-07-30T02:21:46;99976.41;;;20.09;81.38
81379;BME280;70830;42.290;-71.354;2023-07-30T02:24:12;100008.66;;;19.98;81.15
81379;BME280;70830;42.290;-71.354;2023-07-30T02:26:38;100034.56;;;19.88;82.59
81379;BME280;70830;42.290;-71.354;2023-07-30T02:29:04;100046.94;;;19.80;82.50
81379;BME280;70830;42.290;-71.354;2023-07-30T02:31:31;100075.50;;;19.79;82.79
81379;BME280;70830;42.290;-71.354;2023-07-30T02:33:57;100080.41;;;19.74;82.13
81379;BME280;70830;42.290;-71.354;2023-07-30T02:36:24;100067.31;;;19.71;81.70
81379;BME280;70830;42.290;-71.354;2023-07-30T02:38:50;100061.63;;;19.64;81.24
81379;BME280;70830;42.290;-71.354;2023-07-30T02:41:16;100059.66;;;19.57;81.72
81379;BME280;70830;42.290;-71.354;2023-07-30T02:43:42;100100.03;;;19.54;81.70
81379;BME280;70830;42.290;-71.354;2023-07-30T02:46:08;100095.94;;;19.50;82.29
81379;BME280;70830;42.290;-71.354;2023-07-30T02:48:34;100093.66;;;19.45;80.29
81379;BME280;70830;42.290;-71.354;2023-07-30T02:51:00;100099.94;;;19.35;81.04
81379;BME280;70830;42.290;-71.354;2023-07-30T02:53:26;100093.22;;;19.20;79.98
81379;BME280;70830;42.290;-71.354;2023-07-30T02:55:53;100098.31;;;19.02;79.81
81379;BME280;70830;42.290;-71.354;2023-07-30T02:58:19;100127.34;;;18.95;81.14
81379;BME280;70830;42.290;-71.354;2023-07-30T03:00:44;100142.22;;;18.88;81.63
81379;BME280;70830;42.290;-71.354;2023-07-30T03:03:12;100152.19;;;18.86;80.84
81379;BME280;70830;42.290;-71.354;2023-07-30T03:05:41;100162.78;;;18.77;81.96
81379;BME280;70830;42.290;-71.354;2023-07-30T03:08:08;100183.31;;;18.76;81.82
81379;BME280;70830;42.290;-71.354;2023-07-30T03:10:33;100190.47;;;18.76;82.26
81379;BME280;70830;42.290;-71.354;2023-07-30T03:13:00;100194.13;;;18.75;82.24
81379;BME280;70830;42.290;-71.354;2023-07-30T03:15:27;100198.38;;;18.77;82.02
81379;BME280;70830;42.290;-71.354;2023-07-30T03:17:53;100187.94;;;18.74;81.99
81379;BME280;70830;42.290;-71.354;2023-07-30T03:20:18;100207.22;;;18.78;81.67
81379;BME280;70830;42.290;-71.354;2023-07-30T03:22:44;100216.22;;;18.77;81.81
81379;BME280;70830;42.290;-71.354;2023-07-30T03:25:10;100218.50;;;18.81;81.83
81379;BME280;70830;42.290;-71.354;2023-07-30T03:27:36;100213.31;;;18.80;82.17
81379;BME280;70830;42.290;-71.354;2023-07-30T03:30:02;100217.53;;;18.82;82.21
81379;BME280;70830;42.290;-71.354;2023-07-30T03:32:28;100220.91;;;18.84;82.85
81379;BME280;70830;42.290;-71.354;2023-07-30T03:34:54;100231.50;;;18.86;81.49
81379;BME280;70830;42.290;-71.354;2023-07-30T03:37:20;100235.03;;;18.86;81.27
81379;BME280;70830;42.290;-71.354;2023-07-30T03:39:46;100245.72;;;18.86;82.08
81379;BME280;70830;42.290;-71.354;2023-07-30T03:42:12;100254.09;;;18.82;81.80
81379;BME280;70830;42.290;-71.354;2023-07-30T03:44:38;100247.03;;;18.81;81.12
81379;BME280;70830;42.290;-71.354;2023-07-30T03:47:04;100250.81;;;18.78;81.71
81379;BME280;70830;42.290;-71.354;2023-07-30T03:49:30;100234.31;;;18.73;81.47
81379;BME280;70830;42.290;-71.354;2023-07-30T03:51:55;100259.81;;;18.77;81.34
81379;BME280;70830;42.290;-71.354;2023-07-30T03:54:21;100260.19;;;18.73;81.64
81379;BME280;70830;42.290;-71.354;2023-07-30T03:56:47;100262.97;;;18.71;81.96
81379;BME280;70830;42.290;-71.354;2023-07-30T03:59:13;100270.16;;;18.71;81.66
81379;BME280;70830;42.290;-71.354;2023-07-30T04:01:39;100260.56;;;18.68;81.90
81379;BME280;70830;42.290;-71.354;2023-07-30T04:04:05;100285.31;;;18.70;82.03
81379;BME280;70830;42.290;-71.354;2023-07-30T04:06:31;100289.94;;;18.68;81.62
81379;BME280;70830;42.290;-71.354;2023-07-30T04:08:57;100282.16;;;18.65;80.92
81379;BME280;70830;42.290;-71.354;2023-07-30T04:11:23;100288.22;;;18.67;81.56
81379;BME280;70830;42.290;-71.354;2023-07-30T04:13:49;100285.06;;;18.62;81.81
81379;BME280;70830;42.290;-71.354;2023-07-30T04:16:15;100281.44;;;18.63;81.36
81379;BME280;70830;42.290;-71.354;2023-07-30T04:18:42;100274.66;;;18.59;81.84
81379;BME280;70830;42.290;-71.354;2023-07-30T04:21:07;100263.25;;;18.57;81.77
81379;BME280;70830;42.290;-71.354;2023-07-30T04:23:33;100268.59;;;18.57;81.89
81379;BME280;70830;42.290;-71.354;2023-07-30T04:25:59;100262.28;;;18.47;80.60
81379;BME280;70830;42.290;-71.354;2023-07-30T04:28:25;100295.50;;;18.43;80.81
81379;BME280;70830;42.290;-71.354;2023-07-30T04:30:51;100291.16;;;18.42;80.17
81379;BME280;70830;42.290;-71.354;2023-07-30T04:33:17;100272.34;;;18.33;80.34
81379;BME280;70830;42.290;-71.354;2023-07-30T04:35:43;100268.22;;;18.28;80.34
81379;BME280;70830;42.290;-71.354;2023-07-30T04:38:09;100271.97;;;18.26;80.24
81379;BME280;70830;42.290;-71.354;2023-07-30T04:40:36;100290.53;;;18.27;80.42
81379;BME280;70830;42.290;-71.354;2023-07-30T04:43:02;100293.91;;;18.29;80.05
81379;BME280;70830;42.290;-71.354;2023-07-30T04:45:28;100305.69;;;18.27;79.99
81379;BME280;70830;42.290;-71.354;2023-07-30T04:47:54;100298.66;;;18.26;80.38
81379;BME280;70830;42.290;-71.354;2023-07-30T04:50:19;100309.22;;;18.27;80.53
81379;BME280;70830;42.290;-71.354;2023-07-30T04:52:46;100298.75;;;18.24;80.21
81379;BME280;70830;42.290;-71.354;2023-07-30T04:55:12;100305.09;;;18.23;80.13
81379;BME280;70830;42.290;-71.354;2023-07-30T04:57:38;100314.91;;;18.23;80.29
81379;BME280;70830;42.290;-71.354;2023-07-30T05:00:05;100304.22;;;18.23;79.60
81379;BME280;70830;42.290;-71.354;2023-07-30T05:02:31;100311.38;;;18.22;79.76
81379;BME280;70830;42.290;-71.354;2023-07-30T05:04:57;100314.19;;;18.21;79.99
81379;BME280;70830;42.290;-71.354;2023-07-30T05:07:23;100316.84;;;18.21;80.21
81379;BME280;70830;42.290;-71.354;2023-07-30T05:09:49;100308.13;;;18.19;79.99
81379;BME280;70830;42.290;-71.354;2023-07-30T05:12:15;100327.41;;;18.22;79.57
81379;BME280;70830;42.290;-71.354;2023-07-30T05:14:40;100331.91;;;18.22;79.99
81379;BME280;70830;42.290;-71.354;2023-07-30T05:17:06;100332.00;;;18.20;79.94
81379;BME280;70830;42.290;-71.354;2023-07-30T05:19:32;100339.06;;;18.21;79.65
81379;BME280;70830;42.290;-71.354;2023-07-30T05:21:58;100350.47;;;18.23;79.59
81379;BME280;70830;42.290;-71.354;2023-07-30T05:24:27;100345.00;;;18.25;79.59
81379;BME280;70830;42.290;-71.354;2023-07-30T05:26:54;100337.13;;;18.23;79.75
81379;BME280;70830;42.290;-71.354;2023-07-30T05:29:19;100342.94;;;18.28;78.78
81379;BME280;70830;42.290;-71.354;2023-07-30T05:31:45;100340.38;;;18.27;79.17
81379;BME280;70830;42.290;-71.354;2023-07-30T05:34:11;100345.00;;;18.25;79.43
81379;BME280;70830;42.290;-71.354;2023-07-30T05:36:37;100343.19;;;18.25;78.98
81379;BME280;70830;42.290;-71.354;2023-07-30T05:39:03;100339.66;;;18.25;80.28
81379;BME280;70830;42.290;-71.354;2023-07-30T05:41:29;100333.94;;;18.18;79.36
81379;BME280;70830;42.290;-71.354;2023-07-30T05:43:55;100329.47;;;18.19;80.07
81379;BME280;70830;42.290;-71.354;2023-07-30T05:46:20;100319.75;;;18.18;80.72
81379;BME280;70830;42.290;-71.354;2023-07-30T05:48:46;100306.75;;;18.13;80.68
81379;BME280;70830;42.290;-71.354;2023-07-30T05:51:12;100307.38;;;18.17;80.80
81379;BME280;70830;42.290;-71.354;2023-07-30T05:53:38;100305.81;;;18.14;79.85
81379;BME280;70830;42.290;-71.354;2023-07-30T05:56:04;100294.41;;;18.12;80.61
81379;BME280;70830;42.290;-71.354;2023-07-30T05:58:30;100291.75;;;18.12;80.27
81379;BME280;70830;42.290;-71.354;2023-07-30T06:00:56;100288.22;;;18.12;80.20
81379;BME280;70830;42.290;-71.354;2023-07-30T06:03:22;100287.25;;;18.13;79.81
81379;BME280;70830;42.290;-71.354;2023-07-30T06:05:48;100283.59;;;18.14;80.35
81379;BME280;70830;42.290;-71.354;2023-07-30T06:08:14;100278.41;;;18.12;79.60
81379;BME280;70830;42.290;-71.354;2023-07-30T06:10:40;100279.00;;;18.16;80.56
81379;BME280;70830;42.290;-71.354;2023-07-30T06:13:06;100272.94;;;18.14;79.71
81379;BME280;70830;42.290;-71.354;2023-07-30T06:15:32;100288.72;;;18.17;80.51
81379;BME280;70830;42.290;-71.354;2023-07-30T06:18:01;100294.91;;;18.17;80.73
81379;BME280;70830;42.290;-71.354;2023-07-30T06:20:28;100287.84;;;18.16;80.71
81379;BME280;70830;42.290;-71.354;2023-07-30T06:22:54;100296.47;;;18.20;79.05
81379;BME280;70830;42.290;-71.354;2023-07-30T06:25:21;100296.34;;;18.21;79.61
81379;BME280;70830;42.290;-71.354;2023-07-30T06:27:47;100295.38;;;18.22;79.75
81379;BME280;70830;42.290;-71.354;2023-07-30T06:30:13;100295.50;;;18.21;79.21
81379;BME280;70830;42.290;-71.354;2023-07-30T06:32:39;100297.44;;;18.19;79.25
81379;BME280;70830;42.290;-71.354;2023-07-30T06:35:05;100298.28;;;18.19;79.89
81379;BME280;70830;42.290;-71.354;2023-07-30T06:37:31;100313.31;;;18.20;79.39
81379;BME280;70830;42.290;-71.354;2023-07-30T06:39:58;100300.34;;;18.16;78.60
81379;BME280;70830;42.290;-71.354;2023-07-30T06:42:24;100300.13;;;18.19;79.95
81379;BME280;70830;42.290;-71.354;2023-07-30T06:44:50;100302.91;;;18.17;79.03
81379;BME280;70830;42.290;-71.354;2023-07-30T06:47:16;100292.59;;;18.13;78.98
81379;BME280;70830;42.290;-71.354;2023-07-30T06:49:41;100300.59;;;18.13;79.02
81379;BME280;70830;42.290;-71.354;2023-07-30T06:52:07;100314.31;;;18.08;78.53
81379;BME280;70830;42.290;-71.354;2023-07-30T06:54:33;100313.66;;;18.05;78.41
81379;BME280;70830;42.290;-71.354;2023-07-30T06:56:59;100310.63;;;17.98;79.41
81379;BME280;70830;42.290;-71.354;2023-07-30T06:59:25;100313.19;;;18.00;79.12
81379;BME280;70830;42.290;-71.354;2023-07-30T07:01:51;100323.00;;;17.99;78.89
81379;BME280;70830;42.290;-71.354;2023-07-30T07:04:17;100319.00;;;17.94;79.23
81379;BME280;70830;42.290;-71.354;2023-07-30T07:06:44;100311.13;;;17.92;78.97
81379;BME280;70830;42.290;-71.354;2023-07-30T07:09:10;100329.19;;;17.89;78.60
81379;BME280;70830;42.290;-71.354;2023-07-30T07:11:36;100334.88;;;17.84;78.31
81379;BME280;70830;42.290;-71.354;2023-07-30T07:14:03;100327.31;;;17.78;77.63
81379;BME280;70830;42.290;-71.354;2023-07-30T07:16:29;100327.91;;;17.71;77.90
81379;BME280;70830;42.290;-71.354;2023-07-30T07:18:55;100329.84;;;17.69;77.11
81379;BME280;70830;42.290;-71.354;2023-07-30T07:21:21;100334.03;;;17.60;76.95
81379;BME280;70830;42.290;-71.354;2023-07-30T07:23:47;100333.97;;;17.49;76.21
81379;BME280;70830;42.290;-71.354;2023-07-30T07:26:13;100326.56;;;17.41;76.78
81379;BME280;70830;42.290;-71.354;2023-07-30T07:28:39;100334.91;;;17.37;76.11
81379;BME280;70830;42.290;-71.354;2023-07-30T07:31:04;100340.69;;;17.31;76.03
81379;BME280;70830;42.290;-71.354;2023-07-30T07:33:30;100330.72;;;17.22;76.22
81379;BME280;70830;42.290;-71.354;2023-07-30T07:36:04;100343.50;;;17.17;76.76
81379;BME280;70830;42.290;-71.354;2023-07-30T07:38:31;100351.09;;;17.10;76.22
81379;BME280;70830;42.290;-71.354;2023-07-30T07:40:57;100354.09;;;17.06;76.24
81379;BME280;70830;42.290;-71.354;2023-07-30T07:43:24;100352.63;;;17.02;76.77
81379;BME280;70830;42.290;-71.354;2023-07-30T07:45:50;100362.97;;;16.94;77.20
81379;BME280;70830;42.290;-71.354;2023-07-30T07:48:15;100380.03;;;16.91;76.66
81379;BME280;70830;42.290;-71.354;2023-07-30T07:50:41;100374.53;;;16.81;77.16
81379;BME280;70830;42.290;-71.354;2023-07-30T07:53:07;100382.84;;;16.77;76.68
81379;BME280;70830;42.290;-71.354;2023-07-30T07:55:33;100383.16;;;16.72;77.07
81379;BME280;70830;42.290;-71.354;2023-07-30T07:57:59;100378.38;;;16.65;77.41
81379;BME280;70830;42.290;-71.354;2023-07-30T08:00:25;100384.88;;;16.61;77.41
81379;BME280;70830;42.290;-71.354;2023-07-30T08:02:51;100409.47;;;16.64;77.41
81379;BME280;70830;42.290;-71.354;2023-07-30T08:05:18;100404.38;;;16.61;78.23
81379;BME280;70830;42.290;-71.354;2023-07-30T08:07:48;100407.16;;;16.60;77.50
81379;BME280;70830;42.290;-71.354;2023-07-30T08:10:14;100413.63;;;16.56;77.89
81379;BME280;70830;42.290;-71.354;2023-07-30T08:12:40;100408.72;;;16.50;78.00
81379;BME280;70830;42.290;-71.354;2023-07-30T08:15:06;100416.88;;;16.47;77.63
81379;BME280;70830;42.290;-71.354;2023-07-30T08:17:32;100423.94;;;16.48;77.53
81379;BME280;70830;42.290;-71.354;2023-07-30T08:19:58;100427.84;;;16.42;77.13
81379;BME280;70830;42.290;-71.354;2023-07-30T08:22:24;100427.34;;;16.37;76.25
81379;BME280;70830;42.290;-71.354;2023-07-30T08:24:50;100440.66;;;16.37;75.59
81379;BME280;70830;42.290;-71.354;2023-07-30T08:27:16;100439.25;;;16.32;75.85
81379;BME280;70830;42.290;-71.354;2023-07-30T08:29:42;100428.28;;;16.24;75.55
81379;BME280;70830;42.290;-71.354;2023-07-30T08:32:07;100433.91;;;16.19;75.44
81379;BME280;70830;42.290;-71.354;2023-07-30T08:34:33;100453.72;;;16.15;74.83
81379;BME280;70830;42.290;-71.354;2023-07-30T08:36:59;100457.63;;;16.09;75.34
81379;BME280;70830;42.290;-71.354;2023-07-30T08:39:25;100469.44;;;16.05;74.26
81379;BME280;70830;42.290;-71.354;2023-07-30T08:41:52;100464.72;;;15.96;74.12
81379;BME280;70830;42.290;-71.354;2023-07-30T08:44:17;100465.88;;;15.92;74.78
81379;BME280;70830;42.290;-71.354;2023-07-30T08:46:43;100458.50;;;15.83;74.29
81379;BME280;70830;42.290;-71.354;2023-07-30T08:49:09;100460.84;;;15.75;74.11
81379;BME280;70830;42.290;-71.354;2023-07-30T08:51:36;100449.94;;;15.66;74.22
81379;BME280;70830;42.290;-71.354;2023-07-30T08:54:03;100449.28;;;15.62;74.42
81379;BME280;70830;42.290;-71.354;2023-07-30T08:56:31;100455.66;;;15.60;75.21
81379;BME280;70830;42.290;-71.354;2023-07-30T08:58:57;100455.97;;;15.55;75.23
81379;BME280;70830;42.290;-71.354;2023-07-30T09:01:29;100454.44;;;15.51;75.23
81379;BME280;70830;42.290;-71.354;2023-07-30T09:03:57;100449.44;;;15.47;74.89
81379;BME280;70830;42.290;-71.354;2023-07-30T09:06:26;100459.56;;;15.40;74.51
81379;BME280;70830;42.290;-71.354;2023-07-30T09:08:52;100472.09;;;15.38;75.31
81379;BME280;70830;42.290;-71.354;2023-07-30T09:11:18;100479.41;;;15.34;75.39
81379;BME280;70830;42.290;-71.354;2023-07-30T09:13:46;100473.53;;;15.29;75.29
81379;BME280;70830;42.290;-71.354;2023-07-30T09:16:13;100467.38;;;15.29;75.91
81379;BME280;70830;42.290;-71.354;2023-07-30T09:18:41;100458.00;;;15.23;75.51
81379;BME280;70830;42.290;-71.354;2023-07-30T09:21:07;100454.78;;;15.18;74.90
81379;BME280;70830;42.290;-71.354;2023-07-30T09:23:39;100454.88;;;15.17;74.68
81379;BME280;70830;42.290;-71.354;2023-07-30T09:26:06;100442.00;;;15.11;75.14
81379;BME280;70830;42.290;-71.354;2023-07-30T09:28:31;100457.94;;;15.11;74.97
81379;BME280;70830;42.290;-71.354;2023-07-30T09:31:05;100455.66;;;15.05;75.19
81379;BME280;70830;42.290;-71.354;2023-07-30T09:33:31;100466.38;;;15.03;74.71
81379;BME280;70830;42.290;-71.354;2023-07-30T09:36:01;100451.66;;;14.98;74.63
81379;BME280;70830;42.290;-71.354;2023-07-30T09:38:27;100463.06;;;15.00;74.98
81379;BME280;70830;42.290;-71.354;2023-07-30T09:41:01;100469.41;;;14.97;74.97
81379;BME280;70830;42.290;-71.354;2023-07-30T09:43:33;100455.38;;;14.95;75.35
81379;BME280;70830;42.290;-71.354;2023-07-30T09:46:06;100452.91;;;14.92;75.63
81379;BME280;70830;42.290;-71.354;2023-07-30T09:48:33;100466.28;;;14.91;76.11
81379;BME280;70830;42.290;-71.354;2023-07-30T09:51:00;100469.78;;;14.91;75.80
81379;BME280;70830;42.290;-71.354;2023-07-30T09:53:32;100472.44;;;14.91;75.14
81379;BME280;70830;42.290;-71.354;2023-07-30T09:56:02;100477.75;;;14.91;74.93
81379;BME280;70830;42.290;-71.354;2023-07-30T09:58:28;100477.66;;;14.93;75.95
81379;BME280;70830;42.290;-71.354;2023-07-30T10:00:57;100483.91;;;14.92;75.19
81379;BME280;70830;42.290;-71.354;2023-07-30T10:03:24;100489.97;;;14.94;74.45
81379;BME280;70830;42.290;-71.354;2023-07-30T10:05:51;100492.34;;;14.98;74.94
81379;BME280;70830;42.290;-71.354;2023-07-30T10:08:23;100494.72;;;15.03;75.33
81379;BME280;70830;42.290;-71.354;2023-07-30T10:10:51;100497.84;;;15.09;74.64
81379;BME280;70830;42.290;-71.354;2023-07-30T10:13:19;100493.00;;;15.16;74.79
81379;BME280;70830;42.290;-71.354;2023-07-30T10:15:47;100498.38;;;15.42;75.82
81379;BME280;70830;42.290;-71.354;2023-07-30T10:18:13;100497.84;;;15.78;75.23
81379;BME280;70830;42.290;-71.354;2023-07-30T10:20:40;100509.38;;;15.91;72.63
81379;BME280;70830;42.290;-71.354;2023-07-30T10:23:06;100514.50;;;15.94;72.86
81379;BME280;70830;42.290;-71.354;2023-07-30T10:25:49;100507.88;;;15.87;73.19
81379;BME280;70830;42.290;-71.354;2023-07-30T10:31:01;100518.16;;;15.79;72.66
81379;BME280;70830;42.290;-71.354;2023-07-30T10:33:52;100515.69;;;15.76;72.46
81379;BME280;70830;42.290;-71.354;2023-07-30T10:36:31;100517.72;;;15.73;73.47
81379;BME280;70830;42.290;-71.354;2023-07-30T10:38:57;100527.06;;;15.78;73.41
81379;BME280;70830;42.290;-71.354;2023-07-30T10:41:24;100530.59;;;15.79;72.56
81379;BME280;70830;42.290;-71.354;2023-07-30T10:43:50;100532.19;;;15.81;72.32
81379;BME280;70830;42.290;-71.354;2023-07-30T10:46:19;100537.22;;;15.86;72.54
81379;BME280;70830;42.290;-71.354;2023-07-30T10:48:47;100532.53;;;15.89;72.25
81379;BME280;70830;42.290;-71.354;2023-07-30T10:51:15;100534.81;;;15.95;72.55
81379;BME280;70830;42.290;-71.354;2023-07-30T10:53:46;100540.78;;;15.99;71.90
81379;BME280;70830;42.290;-71.354;2023-07-30T10:56:13;100544.84;;;16.04;72.18
81379;BME280;70830;42.290;-71.354;2023-07-30T10:58:42;100548.63;;;16.14;72.09
81379;BME280;70830;42.290;-71.354;2023-07-30T11:01:09;100542.78;;;16.22;71.86
81379;BME280;70830;42.290;-71.354;2023-07-30T11:03:35;100551.44;;;16.38;72.01
81379;BME280;70830;42.290;-71.354;2023-07-30T11:06:03;100546.84;;;16.67;69.71
81379;BME280;70830;42.290;-71.354;2023-07-30T11:08:47;100554.13;;;17.15;70.13
81379;BME280;70830;42.290;-71.354;2023-07-30T11:11:13;100546.38;;;17.61;67.39
81379;BME280;70830;42.290;-71.354;2023-07-30T11:13:40;100566.31;;;18.04;68.02
81379;BME280;70830;42.290;-71.354;2023-07-30T11:16:08;100571.75;;;18.50;68.27
81379;BME280;70830;42.290;-71.354;2023-07-30T11:18:35;100576.00;;;18.87;64.96
81379;BME280;70830;42.290;-71.354;2023-07-30T11:21:13;100570.97;;;19.18;65.40
81379;BME280;70830;42.290;-71.354;2023-07-30T11:23:42;100574.88;;;19.58;64.80
81379;BME280;70830;42.290;-71.354;2023-07-30T11:26:09;100581.31;;;19.89;64.58
81379;BME280;70830;42.290;-71.354;2023-07-30T11:28:39;100568.63;;;20.02;59.54
81379;BME280;70830;42.290;-71.354;2023-07-30T11:31:10;100582.09;;;20.00;61.82
81379;BME280;70830;42.290;-71.354;2023-07-30T11:33:41;100584.41;;;20.05;60.62
81379;BME280;70830;42.290;-71.354;2023-07-30T11:36:10;100593.41;;;20.15;61.95
81379;BME280;70830;42.290;-71.354;2023-07-30T11:38:38;100583.50;;;20.37;63.45
81379;BME280;70830;42.290;-71.354;2023-07-30T11:41:04;100589.69;;;20.70;61.74
81379;BME280;70830;42.290;-71.354;2023-07-30T11:43:31;100592.31;;;21.01;61.90
81379;BME280;70830;42.290;-71.354;2023-07-30T11:46:16;100594.00;;;21.23;61.31
81379;BME280;70830;42.290;-71.354;2023-07-30T11:48:44;100595.00;;;21.52;60.73
81379;BME280;70830;42.290;-71.354;2023-07-30T11:53:58;100599.91;;;22.17;59.38
81379;BME280;70830;42.290;-71.354;2023-07-30T11:56:26;100608.41;;;22.32;58.50
81379;BME280;70830;42.290;-71.354;2023-07-30T12:01:28;100610.78;;;22.16;57.48
81379;BME280;70830;42.290;-71.354;2023-07-30T12:03:55;100616.44;;;22.13;56.44
81379;BME280;70830;42.290;-71.354;2023-07-30T12:06:22;100623.50;;;22.14;58.38
81379;BME280;70830;42.290;-71.354;2023-07-30T12:08:51;100623.81;;;22.30;55.60
81379;BME280;70830;42.290;-71.354;2023-07-30T12:11:18;100626.09;;;22.44;57.43
81379;BME280;70830;42.290;-71.354;2023-07-30T12:13:47;100616.91;;;22.56;55.28
81379;BME280;70830;42.290;-71.354;2023-07-30T12:16:15;100628.84;;;22.73;55.17
81379;BME280;70830;42.290;-71.354;2023-07-30T12:18:41;100635.75;;;22.85;52.29
81379;BME280;70830;42.290;-71.354;2023-07-30T12:21:07;100627.69;;;22.85;52.57
81379;BME280;70830;42.290;-71.354;2023-07-30T12:23:36;100627.69;;;22.85;53.08
81379;BME280;70830;42.290;-71.354;2023-07-30T12:26:03;100629.84;;;22.91;54.73
81379;BME280;70830;42.290;-71.354;2023-07-30T12:28:34;100623.88;;;22.97;51.08
81379;BME280;70830;42.290;-71.354;2023-07-30T12:31:01;100630.50;;;23.21;52.90
81379;BME280;70830;42.290;-71.354;2023-07-30T12:33:26;100639.38;;;23.51;53.04
81379;BME280;70830;42.290;-71.354;2023-07-30T12:35:53;100641.69;;;23.73;52.71
81379;BME280;70830;42.290;-71.354;2023-07-30T12:38:19;100641.88;;;23.89;50.08